Vitoria, Spain
Current Conditions -  °F | °C
As of 9:30 AM on Saturday 22 Nov 2014 (Local Time) from LEVT Reporting Station
Few Clouds Few Clouds  
Wind Chill: 52°   Ceiling: Unl
Heat Index: 52°   Visibility: 5mi
Dew Point: 50°   Wind: 5mph
Humidity: 94%   Direction: 100°E
Pressure: 30.03"   Gusts: NA
Location:  42.85°N, 2.67°W
Report Text: LEVT 220830Z 10004KT 070V150 8000 FEW015 11/10 Q1017
Loading
Personal Weather Stations






























Interactive Weather Map New forecast layout! Learn more

10-Day Weather Forecast

Advertisements
Track Severe Weather on mobile